Time;durP1;ratioP1;P1;durP2;ratioP2;P2;SDS_P1;SDS_P2;PMS_P1;PMS_P2;Temp;Humidity;BMP_temperature;BMP_pressure;BME280_temperature;BME280_humidity;BME280_pressure;Samples;Min_cycle;Max_cycle;Signal;HPM_P1;HPM_P2
2021/12/26 00:01:18;;;;;;;3.25;2.60;;;-5.10;99.90;;;;;;4993868;28;90686;-42
2021/12/26 00:03:45;;;;;;;2.65;2.45;;;-4.90;98.70;;;;;;4980181;28;90554;-39
2021/12/26 00:06:15;;;;;;;4.82;2.67;;;-4.90;97.40;;;;;;4994752;28;88719;-42
2021/12/26 00:08:41;;;;;;;2.45;1.90;;;-4.90;97.60;;;;;;5000717;28;91451;-38
2021/12/26 00:11:08;;;;;;;3.53;2.58;;;-4.90;96.70;;;;;;5000880;28;90173;-37
2021/12/26 00:13:35;;;;;;;3.13;2.50;;;-5.00;98.20;;;;;;5000664;28;90029;-39
2021/12/26 00:16:02;;;;;;;3.40;3.10;;;-5.10;99.60;;;;;;5002613;28;89250;-43
2021/12/26 00:18:28;;;;;;;2.83;2.53;;;-5.20;99.90;;;;;;5002071;28;90383;-43
2021/12/26 00:20:54;;;;;;;2.45;2.20;;;-5.20;99.90;;;;;;5002192;28;89840;-42
2021/12/26 00:23:21;;;;;;;2.67;1.75;;;-5.20;99.90;;;;;;5002525;28;90346;-40
2021/12/26 00:25:47;;;;;;;4.10;2.70;;;-5.20;99.70;;;;;;5001973;28;89424;-42
2021/12/26 00:28:13;;;;;;;4.53;2.72;;;-5.00;94.90;;;;;;5001967;28;89938;-40
2021/12/26 00:30:39;;;;;;;4.70;2.10;;;-4.90;93.70;;;;;;5002364;28;89804;-40
2021/12/26 00:33:05;;;;;;;2.95;2.67;;;-4.90;92.90;;;;;;5002904;28;89507;-37
2021/12/26 00:35:30;;;;;;;2.58;2.42;;;-4.90;92.70;;;;;;5001876;28;88381;-35
2021/12/26 00:37:56;;;;;;;3.30;2.25;;;-4.90;92.50;;;;;;5002480;28;90487;-38
2021/12/26 00:40:23;;;;;;;6.53;2.85;;;-5.00;92.90;;;;;;5001625;28;89723;-37
2021/12/26 00:42:49;;;;;;;2.70;2.00;;;-5.00;93.30;;;;;;5001113;28;89657;-34
2021/12/26 00:45:16;;;;;;;3.33;3.03;;;-5.10;94.20;;;;;;5002729;28;89170;-43
2021/12/26 00:47:42;;;;;;;4.63;2.95;;;-5.30;95.70;;;;;;5002200;28;89850;-35
2021/12/26 00:50:11;;;;;;;2.53;2.33;;;-5.40;96.70;;;;;;5001211;28;91055;-41
2021/12/26 00:52:37;;;;;;;6.25;3.05;;;-5.50;98.70;;;;;;5002441;28;90168;-40
2021/12/26 00:55:07;;;;;;;4.60;2.42;;;-5.60;99.90;;;;;;5002100;28;88108;-35
2021/12/26 00:57:32;;;;;;;3.30;3.05;;;-5.60;99.90;;;;;;5002166;28;91843;-34
2021/12/26 00:59:58;;;;;;;3.78;3.45;;;-5.60;99.90;;;;;;5002070;28;89657;-33
2021/12/26 01:02:24;;;;;;;3.78;3.28;;;-5.70;99.90;;;;;;5001272;28;89956;-42
2021/12/26 01:04:49;;;;;;;3.80;3.50;;;-5.80;99.90;;;;;;5001229;28;88579;-35
2021/12/26 01:07:29;;;;;;;4.95;3.13;;;-5.80;99.90;;;;;;5002758;28;90917;-45
2021/12/26 01:09:55;;;;;;;3.15;2.95;;;-5.80;99.90;;;;;;5001398;28;88344;-43
2021/12/26 01:12:20;;;;;;;2.30;2.10;;;-5.90;99.90;;;;;;5001038;28;89883;-40
2021/12/26 01:14:52;;;;;;;5.40;2.30;;;-5.90;99.90;;;;;;5000882;28;89043;-40
2021/12/26 01:17:21;;;;;;;5.07;2.65;;;-5.90;99.90;;;;;;5000980;28;90070;-37
2021/12/26 01:19:51;;;;;;;3.33;2.83;;;-5.90;99.90;;;;;;5001626;28;89851;-42
2021/12/26 01:22:17;;;;;;;2.47;1.98;;;-5.80;99.90;;;;;;5001116;28;89720;-37
2021/12/26 01:27:30;;;;;;;2.97;2.28;;;-5.80;99.90;;;;;;5018598;28;90059;-40
2021/12/26 01:29:56;;;;;;;2.63;2.42;;;-5.80;99.90;;;;;;5021701;28;90432;-43
2021/12/26 01:32:22;;;;;;;3.90;2.63;;;-5.90;99.90;;;;;;5021648;28;89622;-38
2021/12/26 01:34:48;;;;;;;4.30;2.67;;;-5.90;99.90;;;;;;5021724;28;88005;-41
2021/12/26 01:37:14;;;;;;;2.22;2.08;;;-5.90;99.90;;;;;;5021009;28;91105;-33
2021/12/26 01:39:40;;;;;;;2.42;2.22;;;-5.90;99.90;;;;;;5021445;28;90372;-43
2021/12/26 01:42:08;;;;;;;3.40;2.88;;;-5.90;99.90;;;;;;5021624;28;89213;-35
2021/12/26 01:44:34;;;;;;;3.22;2.88;;;-5.90;99.90;;;;;;5021860;28;89185;-39
2021/12/26 01:47:01;;;;;;;4.28;2.65;;;-5.80;99.90;;;;;;5020753;28;90422;-44
2021/12/26 01:49:29;;;;;;;5.07;2.08;;;-5.80;99.90;;;;;;5020869;28;89389;-40
2021/12/26 01:51:58;;;;;;;;;;;-5.70;99.90;;;;;;5021862;28;89388;-39
2021/12/26 01:54:39;;;;;;;3.20;2.50;;;-5.70;99.90;;;;;;5023104;28;87964;-38
2021/12/26 01:57:10;;;;;;;4.45;2.40;;;-5.70;99.90;;;;;;5022153;28;90221;-41
2021/12/26 01:59:37;;;;;;;3.08;2.13;;;-5.90;99.90;;;;;;5021513;28;89306;-38
2021/12/26 02:02:03;;;;;;;5.45;3.33;;;-6.00;99.90;;;;;;5020961;28;89561;-42
2021/12/26 02:04:30;;;;;;;3.90;2.65;;;-6.00;99.90;;;;;;5019938;28;90178;-37
2021/12/26 02:06:56;;;;;;;2.22;2.03;;;-6.10;99.90;;;;;;5021571;28;90292;-33
2021/12/26 02:09:22;;;;;;;3.20;2.42;;;-6.10;99.90;;;;;;5020453;28;91248;-38
2021/12/26 02:11:48;;;;;;;2.17;1.98;;;-6.20;99.90;;;;;;5020715;28;89830;-43
2021/12/26 02:14:13;;;;;;;13.90;2.85;;;-5.90;99.90;;;;;;5003889;28;88866;-39
2021/12/26 02:16:39;;;;;;;2.80;1.90;;;-5.70;94.70;;;;;;5020689;28;90217;-37
2021/12/26 02:19:05;;;;;;;2.47;2.28;;;-5.50;92.40;;;;;;5021198;28;89626;-43
2021/12/26 02:21:57;;;;;;;2.13;1.92;;;-5.50;92.50;;;;;;5020506;28;89605;-39
2021/12/26 02:24:26;;;;;;;;;;;-5.50;92.60;;;;;;5021106;28;88654;-42
2021/12/26 02:29:40;;;;;;;5.43;2.75;;;-5.40;91.70;;;;;;5020760;28;90811;-35
2021/12/26 02:32:07;;;;;;;3.40;2.30;;;-5.50;92.10;;;;;;5021146;28;90744;-38
2021/12/26 02:34:32;;;;;;;5.40;2.58;;;-5.50;92.30;;;;;;5020228;28;89401;-38
2021/12/26 02:36:58;;;;;;;4.00;2.75;;;-5.40;91.90;;;;;;5020418;28;91305;-39
2021/12/26 02:39:24;;;;;;;3.20;2.40;;;-5.40;91.50;;;;;;5002485;28;89836;-36
2021/12/26 02:41:49;;;;;;;3.35;2.22;;;-5.50;91.90;;;;;;5020761;28;89662;-38
2021/12/26 02:44:15;;;;;;;3.30;2.20;;;-5.40;91.80;;;;;;5020517;28;87720;-38
2021/12/26 02:46:41;;;;;;;2.42;1.77;;;-5.50;92.00;;;;;;5020582;28;91212;-38
2021/12/26 02:49:08;;;;;;;3.97;2.42;;;-5.50;92.00;;;;;;5020638;28;90325;-38
2021/12/26 02:51:33;;;;;;;3.58;2.55;;;-5.50;91.90;;;;;;5019633;28;89743;-36
2021/12/26 02:53:59;;;;;;;2.20;2.10;;;-5.50;92.10;;;;;;5002499;28;90120;-39
2021/12/26 02:56:25;;;;;;;5.32;2.92;;;-5.50;92.40;;;;;;5020526;28;89926;-33
2021/12/26 02:58:50;;;;;;;3.25;2.83;;;-5.60;92.60;;;;;;5020167;28;89589;-43
2021/12/26 03:01:23;;;;;;;3.75;3.45;;;-5.60;92.70;;;;;;5019670;28;90356;-41
2021/12/26 03:03:49;;;;;;;5.55;2.80;;;-5.70;93.30;;;;;;5020635;28;88800;-38
2021/12/26 03:09:07;;;;;;;3.05;2.78;;;-5.70;94.00;;;;;;4995433;28;89645;-37
2021/12/26 03:11:32;;;;;;;4.15;2.83;;;-5.80;94.40;;;;;;5019958;28;90719;-36
2021/12/26 03:14:00;;;;;;;7.75;3.08;;;-5.70;93.90;;;;;;5002003;28;88624;-36
2021/12/26 03:16:26;;;;;;;2.33;2.05;;;-5.60;93.00;;;;;;5020233;28;90224;-40
2021/12/26 03:18:59;;;;;;;3.88;2.88;;;-5.50;92.70;;;;;;5019920;28;91123;-38
2021/12/26 03:21:25;;;;;;;2.88;2.25;;;-5.50;92.60;;;;;;5019811;28;89869;-41
2021/12/26 03:23:51;;;;;;;5.60;3.75;;;-5.60;92.60;;;;;;5020240;28;89032;-39
2021/12/26 03:26:16;;;;;;;5.97;4.65;;;-5.60;92.80;;;;;;5019311;28;90373;-40
2021/12/26 03:28:42;;;;;;;2.60;2.40;;;-5.60;92.70;;;;;;5019923;28;90700;-41
2021/12/26 03:31:07;;;;;;;4.63;2.55;;;-5.70;93.00;;;;;;5019249;28;88842;-38
2021/12/26 03:33:34;;;;;;;4.40;2.60;;;-5.70;93.50;;;;;;5020175;28;89394;-34
2021/12/26 03:35:59;;;;;;;4.78;2.67;;;-5.70;93.20;;;;;;5019586;28;90047;-40
2021/12/26 03:38:25;;;;;;;4.22;2.72;;;-5.70;93.00;;;;;;5019793;28;89651;-41
2021/12/26 03:40:53;;;;;;;4.28;2.70;;;-5.80;93.90;;;;;;5019691;28;89924;-34
2021/12/26 03:43:19;;;;;;;7.20;2.77;;;-5.80;93.70;;;;;;5019302;28;88043;-40
2021/12/26 03:45:49;;;;;;;2.50;2.30;;;-5.90;93.90;;;;;;5019453;28;90248;-39
2021/12/26 03:48:20;;;;;;;4.80;3.30;;;-5.80;93.80;;;;;;5019543;28;89529;-36
2021/12/26 03:50:46;;;;;;;4.47;3.00;;;-5.90;94.40;;;;;;5019580;28;89930;-41
2021/12/26 03:53:12;;;;;;;4.03;2.90;;;-6.00;95.30;;;;;;5020313;28;88802;-42
2021/12/26 03:55:38;;;;;;;4.95;2.75;;;-6.10;96.00;;;;;;5019099;28;90485;-42
2021/12/26 03:58:04;;;;;;;2.95;2.65;;;-6.00;95.10;;;;;;5019156;28;89827;-45
2021/12/26 04:00:30;;;;;;;2.72;2.47;;;-5.90;94.30;;;;;;5019538;28;89956;-36
2021/12/26 04:02:56;;;;;;;4.68;3.38;;;-5.90;93.90;;;;;;5020003;28;89548;-39
2021/12/26 04:05:23;;;;;;;5.38;3.35;;;-5.80;93.70;;;;;;5019914;28;89847;-43
2021/12/26 04:07:49;;;;;;;4.30;3.47;;;-5.90;93.40;;;;;;5019292;28;90723;-39
2021/12/26 04:10:17;;;;;;;2.90;2.22;;;-5.90;93.40;;;;;;5019212;28;90367;-36
2021/12/26 04:12:48;;;;;;;2.90;2.70;;;-5.90;93.20;;;;;;5019271;28;87677;-42
2021/12/26 04:15:20;;;;;;;3.90;2.70;;;-5.90;93.30;;;;;;5000515;28;89971;-43
2021/12/26 04:17:47;;;;;;;3.03;2.72;;;-5.90;93.00;;;;;;5019803;27;90667;-41
2021/12/26 04:20:13;;;;;;;2.80;2.40;;;-5.80;92.90;;;;;;5023002;28;89677;-40
2021/12/26 04:22:39;;;;;;;3.30;2.65;;;-5.90;93.20;;;;;;5022557;28;88504;-41
2021/12/26 04:25:07;;;;;;;4.38;3.10;;;-6.00;94.00;;;;;;5022287;28;90336;-36
2021/12/26 04:27:33;;;;;;;5.13;4.18;;;-6.00;94.20;;;;;;5022188;28;90162;-43
2021/12/26 04:29:59;;;;;;;3.13;2.80;;;-5.90;94.10;;;;;;5022955;28;90389;-40
2021/12/26 04:32:25;;;;;;;3.83;2.83;;;-5.90;93.30;;;;;;5021629;28;90881;-33
2021/12/26 04:34:50;;;;;;;3.83;3.35;;;-6.00;93.80;;;;;;5021934;28;91314;-44
2021/12/26 04:37:16;;;;;;;9.05;3.45;;;-6.00;93.80;;;;;;5022087;28;89647;-42
2021/12/26 04:39:41;;;;;;;3.03;2.83;;;-6.00;93.60;;;;;;5022395;28;90382;-46
2021/12/26 04:42:08;;;;;;;2.85;2.65;;;-6.00;93.80;;;;;;5023040;28;89224;-32
2021/12/26 04:44:33;;;;;;;4.10;3.30;;;-6.00;94.70;;;;;;5021872;28;91322;-40
2021/12/26 04:46:59;;;;;;;2.88;2.67;;;-6.10;95.80;;;;;;5022375;28;90033;-36
2021/12/26 04:49:24;;;;;;;6.65;3.88;;;-6.30;96.60;;;;;;5004022;28;89112;-34
2021/12/26 04:51:51;;;;;;;3.72;3.30;;;-6.40;97.60;;;;;;5022408;28;89308;-36
2021/12/26 04:54:16;;;;;;;4.25;2.35;;;-6.50;98.60;;;;;;5022381;28;90258;-36
2021/12/26 04:56:42;;;;;;;4.00;3.08;;;-6.60;99.10;;;;;;5021178;28;90580;-40
2021/12/26 04:59:07;;;;;;;2.63;2.42;;;-6.60;99.90;;;;;;5022296;28;90572;-41
2021/12/26 05:01:35;;;;;;;4.38;3.30;;;-6.60;99.90;;;;;;5021726;28;89595;-37
2021/12/26 05:04:01;;;;;;;5.90;3.72;;;-6.60;99.90;;;;;;5021070;28;90037;-42
2021/12/26 05:06:27;;;;;;;3.88;3.03;;;-6.60;99.90;;;;;;5021806;28;89574;-38
2021/12/26 05:08:53;;;;;;;3.92;3.63;;;-6.60;99.90;;;;;;5022074;28;90413;-38
2021/12/26 05:11:19;;;;;;;3.75;3.45;;;-6.70;99.90;;;;;;5021700;28;87883;-39
2021/12/26 05:13:44;;;;;;;3.40;3.03;;;-6.70;99.90;;;;;;5022385;28;92060;-33
2021/12/26 05:16:10;;;;;;;6.63;3.78;;;-6.70;99.90;;;;;;5021108;28;89360;-40
2021/12/26 05:18:36;;;;;;;3.88;3.17;;;-6.70;99.90;;;;;;5021991;28;89789;-39
2021/12/26 05:21:02;;;;;;;4.07;3.75;;;-6.70;99.90;;;;;;5021197;28;88937;-38
2021/12/26 05:23:27;;;;;;;7.85;2.72;;;-6.70;99.90;;;;;;5021793;28;90566;-44
2021/12/26 05:25:53;;;;;;;4.28;2.50;;;-6.70;99.90;;;;;;5021377;28;88603;-38
2021/12/26 05:28:18;;;;;;;4.88;2.75;;;-6.70;99.90;;;;;;5020687;27;89451;-45
2021/12/26 05:30:44;;;;;;;6.55;4.65;;;-6.70;99.90;;;;;;5021690;28;89892;-35
2021/12/26 05:33:10;;;;;;;6.38;2.72;;;-6.60;99.90;;;;;;5021650;28;89411;-38
2021/12/26 05:35:35;;;;;;;6.18;3.53;;;-6.60;99.90;;;;;;5003344;28;89415;-35
2021/12/26 05:38:01;;;;;;;4.38;3.67;;;-6.60;99.90;;;;;;5021370;28;90255;-33
2021/12/26 05:40:27;;;;;;;3.85;2.63;;;-6.60;99.90;;;;;;5021339;28;89610;-45
2021/12/26 05:42:52;;;;;;;4.10;3.00;;;-6.60;99.90;;;;;;5021410;28;90058;-40
2021/12/26 05:45:18;;;;;;;3.20;2.90;;;-6.50;99.90;;;;;;5019513;28;90391;-44
2021/12/26 05:47:44;;;;;;;3.33;3.05;;;-6.50;99.90;;;;;;5021805;28;90410;-39
2021/12/26 05:50:14;;;;;;;3.88;3.15;;;-6.50;99.90;;;;;;5020705;28;88324;-38
2021/12/26 05:52:40;;;;;;;4.43;3.05;;;-6.40;99.90;;;;;;5002624;28;90494;-42
2021/12/26 05:55:07;;;;;;;4.60;3.60;;;-6.50;99.90;;;;;;5020690;28;89654;-38
2021/12/26 05:57:34;;;;;;;4.10;3.03;;;-6.50;99.90;;;;;;5021121;28;89952;-44
2021/12/26 06:00:00;;;;;;;5.85;4.15;;;-6.50;99.90;;;;;;5021281;28;89561;-36
2021/12/26 06:02:25;;;;;;;4.53;3.65;;;-6.50;99.90;;;;;;5021125;28;89282;-37
2021/12/26 06:04:51;;;;;;;4.13;2.90;;;-6.50;99.90;;;;;;5021066;28;91222;-35
2021/12/26 06:07:17;;;;;;;3.17;2.75;;;-6.50;99.90;;;;;;5020851;28;89950;-38
2021/12/26 06:09:43;;;;;;;7.28;3.70;;;-6.50;99.90;;;;;;5021230;28;88815;-38
2021/12/26 06:12:09;;;;;;;4.55;3.97;;;-6.50;99.90;;;;;;5020503;28;90156;-36
2021/12/26 06:14:35;;;;;;;5.28;4.05;;;-6.50;99.90;;;;;;5020787;28;89359;-39
2021/12/26 06:17:01;;;;;;;5.45;3.47;;;-6.50;99.90;;;;;;5020514;28;89869;-33
2021/12/26 06:19:26;;;;;;;5.05;3.88;;;-6.50;99.90;;;;;;5020332;28;87567;-34
2021/12/26 06:21:52;;;;;;;4.50;3.67;;;-6.50;99.90;;;;;;5003183;28;92245;-40
2021/12/26 06:24:17;;;;;;;6.10;4.05;;;-6.40;99.90;;;;;;5002330;28;91561;-40
2021/12/26 06:26:43;;;;;;;5.95;4.70;;;-6.50;99.90;;;;;;5020266;28;89550;-39
2021/12/26 06:29:09;;;;;;;5.45;4.68;;;-6.50;99.90;;;;;;5002578;28;88437;-37
2021/12/26 06:31:34;;;;;;;4.88;4.43;;;-6.50;99.90;;;;;;5020137;28;90272;-39
2021/12/26 06:34:00;;;;;;;4.88;3.85;;;-6.40;99.90;;;;;;5020549;28;90199;-35
2021/12/26 06:36:26;;;;;;;7.05;4.43;;;-6.40;99.90;;;;;;5020005;28;89163;-39
2021/12/26 06:38:51;;;;;;;4.40;4.00;;;-6.40;99.90;;;;;;5021113;28;90608;-35
2021/12/26 06:41:17;;;;;;;3.70;3.40;;;-6.40;99.90;;;;;;5018904;27;90297;-39
2021/12/26 06:43:43;;;;;;;3.80;3.53;;;-6.50;99.90;;;;;;5020877;28;90786;-39
2021/12/26 06:46:09;;;;;;;6.28;5.32;;;-6.60;99.90;;;;;;5020970;28;90417;-33
2021/12/26 06:48:38;;;;;;;8.30;4.78;;;-6.60;99.90;;;;;;5019667;28;89854;-37
2021/12/26 06:51:04;;;;;;;4.88;4.47;;;-6.60;99.90;;;;;;5019995;28;90145;-42
2021/12/26 06:53:30;;;;;;;8.13;4.72;;;-6.60;99.90;;;;;;5020188;28;89674;-44
2021/12/26 06:55:55;;;;;;;7.05;4.18;;;-6.70;99.90;;;;;;5019682;28;91595;-41
2021/12/26 06:58:21;;;;;;;4.32;3.92;;;-6.70;99.90;;;;;;5020695;28;88957;-36
2021/12/26 07:00:47;;;;;;;7.25;5.18;;;-6.60;99.90;;;;;;5019969;28;91884;-37
2021/12/26 07:03:13;;;;;;;7.20;5.07;;;-6.60;99.90;;;;;;5020136;28;89920;-34
2021/12/26 07:05:39;;;;;;;8.13;5.28;;;-6.60;99.90;;;;;;5001720;28;90055;-36
2021/12/26 07:08:05;;;;;;;5.95;4.38;;;-6.60;99.90;;;;;;5020331;28;89058;-35
2021/12/26 07:10:31;;;;;;;5.65;4.57;;;-6.60;99.90;;;;;;5020042;28;90273;-40
2021/12/26 07:12:56;;;;;;;4.65;4.22;;;-6.60;99.90;;;;;;5020472;28;89367;-36
2021/12/26 07:15:22;;;;;;;6.70;5.38;;;-6.60;99.90;;;;;;5020170;28;88476;-36
2021/12/26 07:17:48;;;;;;;5.85;4.07;;;-6.60;99.90;;;;;;5020532;28;89599;-35
2021/12/26 07:20:14;;;;;;;6.82;4.10;;;-6.70;99.90;;;;;;5019503;28;90254;-35
2021/12/26 07:22:42;;;;;;;8.18;6.00;;;-6.60;99.90;;;;;;5019621;28;90571;-37
2021/12/26 07:25:09;;;;;;;5.95;5.32;;;-6.60;99.90;;;;;;5020296;28;90487;-39
2021/12/26 07:27:35;;;;;;;6.70;4.55;;;-6.60;99.90;;;;;;5019683;28;89595;-37
2021/12/26 07:30:03;;;;;;;5.45;4.22;;;-6.50;99.90;;;;;;5019932;28;89645;-40
2021/12/26 07:32:29;;;;;;;;;;;-6.50;99.90;;;;;;5020188;28;89536;-39
2021/12/26 07:34:55;;;;;;;8.35;6.07;;;-6.50;99.90;;;;;;5020748;28;89064;-34
2021/12/26 07:37:21;;;;;;;12.07;7.57;;;-6.50;99.90;;;;;;5020340;28;89960;-45
2021/12/26 07:39:46;;;;;;;7.28;6.55;;;-6.50;99.90;;;;;;5019963;28;90314;-35
2021/12/26 07:42:12;;;;;;;5.40;4.88;;;-6.50;99.90;;;;;;5018984;28;89840;-35
2021/12/26 07:44:38;;;;;;;7.07;4.85;;;-6.40;99.90;;;;;;5019946;28;89721;-42
2021/12/26 07:47:04;;;;;;;10.68;5.60;;;-6.30;99.90;;;;;;5019943;28;90348;-38
2021/12/26 07:49:30;;;;;;;5.82;5.07;;;-6.40;99.90;;;;;;5019490;28;90455;-34
2021/12/26 07:51:57;;;;;;;10.25;6.75;;;-6.30;99.90;;;;;;5019949;27;89750;-32
2021/12/26 07:54:24;;;;;;;8.32;7.25;;;-6.30;99.90;;;;;;5022575;28;89560;-37
2021/12/26 07:56:50;;;;;;;10.02;6.78;;;-6.40;99.90;;;;;;5022940;28;90295;-44
2021/12/26 07:59:16;;;;;;;8.25;5.75;;;-6.30;99.90;;;;;;5023202;28;90305;-34
2021/12/26 08:01:42;;;;;;;6.10;5.28;;;-6.20;99.90;;;;;;5013930;28;89856;-41
2021/12/26 08:04:13;;;;;;;5.97;5.18;;;-6.20;99.90;;;;;;5022371;28;89697;-38
2021/12/26 08:06:39;;;;;;;7.28;5.30;;;-6.10;99.50;;;;;;5022636;28;89505;-44
2021/12/26 08:09:06;;;;;;;7.70;4.57;;;-6.10;99.00;;;;;;5022820;28;90168;-39
2021/12/26 08:11:32;;;;;;;7.68;4.68;;;-6.00;98.20;;;;;;5021751;28;90470;-37
2021/12/26 08:13:59;;;;;;;7.20;5.95;;;-6.00;96.50;;;;;;5008776;28;90832;-42
2021/12/26 08:16:26;;;;;;;7.65;6.38;;;-5.90;95.10;;;;;;4998073;28;89678;-39
2021/12/26 08:18:52;;;;;;;9.13;5.32;;;-5.80;94.00;;;;;;5001886;28;90365;-33
2021/12/26 08:21:18;;;;;;;6.90;5.43;;;-5.70;93.90;;;;;;5001067;28;88730;-43
2021/12/26 08:23:43;;;;;;;8.00;6.15;;;-5.80;94.10;;;;;;5002919;28;90481;-35
2021/12/26 08:26:09;;;;;;;9.65;5.90;;;-5.80;94.20;;;;;;5001983;28;89492;-37
2021/12/26 08:28:35;;;;;;;6.07;5.57;;;-5.60;93.80;;;;;;5001506;28;90458;-37
2021/12/26 08:31:01;;;;;;;10.45;7.72;;;-5.60;94.60;;;;;;4983739;28;90606;-34
2021/12/26 08:33:26;;;;;;;6.53;5.53;;;-5.60;94.40;;;;;;5001605;28;89024;-36
2021/12/26 08:35:52;;;;;;;7.22;5.90;;;-5.50;94.60;;;;;;5002175;28;88589;-32
2021/12/26 08:38:22;;;;;;;6.82;6.03;;;-5.50;94.00;;;;;;5001586;28;90328;-35
2021/12/26 08:40:49;;;;;;;7.72;6.80;;;-5.30;93.90;;;;;;5001285;28;90399;-34
2021/12/26 08:43:15;;;;;;;7.90;5.53;;;-5.30;93.60;;;;;;4983774;28;89736;-36
2021/12/26 08:45:41;;;;;;;7.78;5.75;;;-5.30;94.10;;;;;;5001145;28;88079;-35
2021/12/26 08:48:07;;;;;;;8.57;6.22;;;-5.30;94.00;;;;;;5001585;28;90513;-35
2021/12/26 08:50:33;;;;;;;10.00;5.88;;;-5.20;94.30;;;;;;5001837;28;91272;-36
2021/12/26 08:52:58;;;;;;;7.40;6.05;;;-5.20;95.00;;;;;;5001616;28;89690;-35
2021/12/26 08:55:24;;;;;;;11.20;6.03;;;-5.20;95.00;;;;;;5015887;28;89423;-44
2021/12/26 08:57:54;;;;;;;5.97;5.32;;;-5.10;96.00;;;;;;5021493;28;90361;-43
2021/12/26 09:00:21;;;;;;;5.75;4.95;;;-5.10;94.20;;;;;;5021332;28;91063;-38
2021/12/26 09:02:47;;;;;;;6.37;5.10;;;-5.00;93.30;;;;;;5021606;28;90475;-38
2021/12/26 09:05:14;;;;;;;7.20;4.78;;;-4.90;93.40;;;;;;5021481;28;87647;-39
2021/12/26 09:07:40;;;;;;;6.18;5.03;;;-4.90;92.90;;;;;;5021871;28;91956;-42
2021/12/26 09:10:08;;;;;;;10.50;8.23;;;-4.80;92.30;;;;;;5021187;28;89539;-36
2021/12/26 09:12:34;;;;;;;6.00;5.40;;;-4.70;92.10;;;;;;5021505;28;90128;-38
2021/12/26 09:15:00;;;;;;;5.05;4.15;;;-4.60;91.10;;;;;;5022412;28;89765;-35
2021/12/26 09:17:26;;;;;;;13.43;6.70;;;-4.60;90.90;;;;;;5021462;28;90166;-38
2021/12/26 09:19:52;;;;;;;6.75;5.47;;;-4.50;90.40;;;;;;5022348;28;90984;-37
2021/12/26 09:22:17;;;;;;;8.70;5.65;;;-4.40;90.30;;;;;;5021180;28;89476;-37
2021/12/26 09:24:45;;;;;;;4.57;4.15;;;-4.30;90.00;;;;;;4925227;28;89962;-42
2021/12/26 09:27:13;;;;;;;4.75;4.35;;;-4.10;90.10;;;;;;4994119;28;89338;-38
2021/12/26 09:29:39;;;;;;;9.98;5.75;;;-4.00;88.50;;;;;;5001751;28;89922;-35
2021/12/26 09:32:05;;;;;;;9.85;5.55;;;-3.90;89.10;;;;;;5016525;28;89945;-36
2021/12/26 09:34:33;;;;;;;7.13;5.53;;;-3.70;88.30;;;;;;5021276;28;88638;-39
2021/12/26 09:36:59;;;;;;;;;;;-3.70;85.40;;;;;;5021499;28;90092;-41
2021/12/26 09:39:25;;;;;;;5.53;5.03;;;-3.60;85.10;;;;;;5006947;27;90124;-38
2021/12/26 09:41:51;;;;;;;9.52;5.85;;;-3.50;85.60;;;;;;5001524;28;89856;-46
2021/12/26 09:44:18;;;;;;;7.72;5.38;;;-3.50;85.70;;;;;;5005710;28;88289;-33
2021/12/26 09:46:44;;;;;;;4.93;4.00;;;-3.40;86.70;;;;;;4983113;28;91427;-37
2021/12/26 09:49:10;;;;;;;9.10;4.80;;;-3.40;85.10;;;;;;4989196;28;90783;-37
2021/12/26 09:51:36;;;;;;;7.22;5.70;;;-3.30;85.40;;;;;;5003249;28;90948;-40
2021/12/26 09:54:04;;;;;;;8.48;6.30;;;-3.30;85.40;;;;;;5004374;28;89070;-38
2021/12/26 09:56:29;;;;;;;7.00;5.65;;;-3.20;85.00;;;;;;5009017;28;90436;-45
2021/12/26 09:58:59;;;;;;;9.20;5.47;;;-3.20;86.30;;;;;;5000854;28;89539;-43
2021/12/26 10:01:41;;;;;;;4.78;4.30;;;-3.10;84.10;;;;;;5004525;28;89953;-37
2021/12/26 10:04:17;;;;;;;6.85;5.65;;;-3.10;84.50;;;;;;4991165;28;89714;-45
2021/12/26 10:06:44;;;;;;;6.05;4.72;;;-3.00;84.20;;;;;;4991671;28;90398;-38
2021/12/26 10:09:10;;;;;;;5.70;4.50;;;-2.90;84.50;;;;;;4991550;28;90659;-39
2021/12/26 10:11:48;;;;;;;5.45;4.72;;;-2.90;85.50;;;;;;4999198;28;88287;-41
2021/12/26 10:14:20;;;;;;;7.70;5.23;;;-2.90;84.80;;;;;;4989129;28;88325;-39
2021/12/26 10:17:23;;;;;;;11.20;6.45;;;-2.80;84.60;;;;;;4989742;28;90573;-43
2021/12/26 10:19:51;;;;;;;7.78;5.25;;;-2.70;86.30;;;;;;4947660;28;89103;-40
2021/12/26 10:22:25;;;;;;;9.15;6.40;;;-2.70;86.90;;;;;;4992744;28;89443;-35
2021/12/26 10:24:52;;;;;;;7.88;5.80;;;-2.60;88.60;;;;;;4992670;28;88581;-45
2021/12/26 10:27:23;;;;;;;5.88;4.82;;;-2.50;86.10;;;;;;4989465;28;91797;-41
2021/12/26 10:29:54;;;;;;;10.85;6.43;;;-2.30;84.10;;;;;;4990126;28;90233;-43
2021/12/26 10:32:25;;;;;;;8.07;5.95;;;-2.20;83.80;;;;;;4994006;28;89342;-36
2021/12/26 10:34:57;;;;;;;7.07;6.05;;;-2.20;82.50;;;;;;5005499;28;89393;-46
2021/12/26 10:37:42;;;;;;;8.25;7.28;;;-2.10;83.90;;;;;;4984717;28;90131;-43
2021/12/26 10:40:12;;;;;;;6.88;5.57;;;-2.10;84.60;;;;;;4981410;28;90744;-45
2021/12/26 10:42:45;;;;;;;6.13;5.53;;;-2.10;85.10;;;;;;4990027;28;91098;-42
2021/12/26 10:45:15;;;;;;;6.78;5.63;;;-2.00;83.90;;;;;;4989182;28;90111;-40
2021/12/26 10:47:44;;;;;;;6.32;5.70;;;-2.00;85.70;;;;;;4989211;28;92041;-39
2021/12/26 10:50:13;;;;;;;;;;;-1.90;84.70;;;;;;4998072;28;90315;-42
2021/12/26 10:52:41;;;;;;;9.80;5.68;;;-1.80;84.00;;;;;;5000759;28;90143;-40
2021/12/26 10:55:15;;;;;;;7.18;5.60;;;-1.80;85.80;;;;;;5007126;28;89956;-44
2021/12/26 10:57:46;;;;;;;11.50;6.63;;;-1.70;85.80;;;;;;4999274;28;88825;-34
2021/12/26 11:00:22;;;;;;;6.53;5.65;;;-1.60;85.20;;;;;;4988141;28;89872;-38
2021/12/26 11:03:01;;;;;;;6.47;5.28;;;-1.60;86.80;;;;;;4987862;28;89458;-44
2021/12/26 11:05:40;;;;;;;9.57;5.60;;;-1.50;85.00;;;;;;4987167;28;89208;-42
2021/12/26 11:08:12;;;;;;;10.07;6.00;;;-1.30;85.10;;;;;;4988343;28;90909;-37
2021/12/26 11:10:41;;;;;;;7.95;5.55;;;-1.40;87.60;;;;;;4987949;28;89740;-36
2021/12/26 11:13:22;;;;;;;17.70;6.45;;;-1.30;86.10;;;;;;4988492;28;90461;-43
2021/12/26 11:15:48;;;;;;;8.18;6.38;;;-1.30;86.30;;;;;;4988662;28;90358;-43
2021/12/26 11:18:18;;;;;;;9.23;5.40;;;-1.20;84.90;;;;;;4989102;28;90619;-38
2021/12/26 11:20:50;;;;;;;6.40;4.55;;;-1.10;85.80;;;;;;4987275;28;88654;-44
2021/12/26 11:23:25;;;;;;;6.90;4.80;;;-1.00;85.90;;;;;;4890031;28;89484;-47
2021/12/26 11:25:57;;;;;;;9.57;5.57;;;-1.00;85.30;;;;;;4986983;28;90945;-41
2021/12/26 11:28:28;;;;;;;11.65;5.78;;;-1.00;85.50;;;;;;4989472;28;92131;-41
2021/12/26 11:31:06;;;;;;;6.68;6.00;;;-0.90;83.90;;;;;;4989798;28;90713;-39
2021/12/26 11:33:33;;;;;;;6.63;6.03;;;-0.90;87.20;;;;;;4997530;28;90184;-37
2021/12/26 11:36:00;;;;;;;7.45;4.78;;;-0.70;82.40;;;;;;5005053;28;90011;-44
2021/12/26 11:38:27;;;;;;;9.77;6.10;;;-0.70;82.20;;;;;;4990646;28;90892;-44
2021/12/26 11:40:59;;;;;;;8.30;6.18;;;-0.60;81.70;;;;;;4990182;28;90096;-43
2021/12/26 11:43:59;;;;;;;10.52;6.75;;;-0.70;84.30;;;;;;4989874;28;89960;-44
2021/12/26 11:46:39;;;;;;;8.57;7.40;;;-0.70;84.90;;;;;;4994758;28;89515;-42
2021/12/26 11:49:30;;;;;;;8.43;6.15;;;-0.60;83.10;;;;;;4999584;28;90268;-43
2021/12/26 11:52:14;;;;;;;7.38;6.65;;;-0.50;82.20;;;;;;4984224;28;89964;-42
2021/12/26 11:55:04;;;;;;;7.55;5.55;;;-0.50;82.00;;;;;;4999035;28;89681;-37
2021/12/26 11:58:01;;;;;;;5.07;4.68;;;-0.40;82.10;;;;;;5004900;28;90169;-38
2021/12/26 12:00:38;;;;;;;9.27;6.40;;;-0.40;80.50;;;;;;4988750;28;90501;-43
2021/12/26 12:03:06;;;;;;;11.80;6.10;;;-0.40;82.20;;;;;;4989891;28;90282;-41
2021/12/26 12:05:40;;;;;;;8.48;5.55;;;-0.50;82.60;;;;;;4989260;28;89868;-42
2021/12/26 12:08:24;;;;;;;6.10;5.57;;;-0.50;83.40;;;;;;4989891;28;90108;-35
2021/12/26 12:10:52;;;;;;;8.00;7.05;;;-0.30;81.60;;;;;;4989805;28;90389;-41
2021/12/26 12:13:26;;;;;;;11.55;7.00;;;-0.30;79.80;;;;;;4989305;28;90668;-38
2021/12/26 12:16:00;;;;;;;9.18;6.38;;;-0.30;80.60;;;;;;4990075;27;90150;-44
2021/12/26 12:18:33;;;;;;;13.27;6.85;;;-0.30;81.40;;;;;;4990138;28;88895;-39
2021/12/26 12:21:16;;;;;;;7.75;5.68;;;-0.30;81.90;;;;;;4989779;28;90336;-43
2021/12/26 12:24:07;;;;;;;7.95;7.22;;;-0.30;81.80;;;;;;4989086;28;89159;-44
2021/12/26 12:26:44;;;;;;;8.65;6.03;;;-0.30;83.00;;;;;;4989926;28;90305;-44
2021/12/26 12:29:23;;;;;;;13.25;7.45;;;-0.30;82.20;;;;;;4990300;28;89210;-40
2021/12/26 12:32:09;;;;;;;10.13;7.47;;;-0.30;83.30;;;;;;4989689;28;90333;-38
2021/12/26 12:35:14;;;;;;;11.23;7.97;;;-0.20;82.00;;;;;;4991735;28;90489;-46
2021/12/26 12:37:42;;;;;;;10.77;7.60;;;-0.20;82.80;;;;;;4988473;28;90206;-42
2021/12/26 12:40:10;;;;;;;8.00;5.88;;;-0.20;84.60;;;;;;4988713;28;88422;-47
2021/12/26 12:42:38;;;;;;;8.32;7.50;;;-0.10;83.90;;;;;;4989797;28;90219;-40
2021/12/26 12:45:04;;;;;;;12.32;7.45;;;-0.10;86.30;;;;;;4997527;28;91209;-42
2021/12/26 12:47:30;;;;;;;10.18;6.32;;;-0.10;85.30;;;;;;5001602;28;91314;-42
2021/12/26 12:50:02;;;;;;;11.38;8.18;;;0.00;85.00;;;;;;4991215;28;91394;-43
2021/12/26 12:52:40;;;;;;;10.55;7.00;;;0.00;85.10;;;;;;4989349;28;89877;-44
2021/12/26 12:55:18;;;;;;;7.85;6.60;;;-0.10;85.90;;;;;;4989541;28;89500;-40
2021/12/26 12:57:48;;;;;;;9.30;6.53;;;0.00;83.60;;;;;;4990370;28;90188;-45
2021/12/26 13:00:37;;;;;;;10.43;6.97;;;0.00;82.40;;;;;;4989549;28;88184;-45
2021/12/26 13:03:03;;;;;;;9.32;7.00;;;0.00;83.60;;;;;;4978951;28;91274;-36